createdAt,value
2023-04-10T00:02:27.299Z,102129.84
2023-04-10T00:04:54.423Z,102133.44
2023-04-10T00:07:21.683Z,102117.97
2023-04-10T00:09:48.706Z,102129.19
2023-04-10T00:12:16.137Z,102122.97
2023-04-10T00:14:43.217Z,102061.94
2023-04-10T00:17:12.429Z,102078.69
2023-04-10T00:19:39.349Z,102102.84
2023-04-10T00:22:06.365Z,102100.03
2023-04-10T00:24:36.323Z,102083.47
2023-04-10T00:27:05.891Z,102095.88
2023-04-10T00:29:32.869Z,102097.84
2023-04-10T00:32:01.114Z,102085.19
2023-04-10T00:34:30.076Z,102085.31
2023-04-10T00:36:56.856Z,102081.84
2023-04-10T00:39:23.827Z,102075.53
2023-04-10T00:41:51.115Z,102080.44
2023-04-10T00:44:18.033Z,102040.63
2023-04-10T00:46:45.144Z,102063.91
2023-04-10T00:49:12.205Z,102076.41
2023-04-10T00:51:42.123Z,102056.53
2023-04-10T00:54:10.715Z,102073.16
2023-04-10T00:56:38.130Z,102054.00
2023-04-10T00:59:07.512Z,102069.81
2023-04-10T01:01:36.768Z,102071.78
2023-04-10T01:04:06.110Z,102069.06
2023-04-10T01:07:00.811Z,102072.75
2023-04-10T01:10:12.878Z,101873.13
2023-04-10T01:12:48.691Z,102067.09
2023-04-10T01:15:27.242Z,102056.19
2023-04-10T01:18:13.959Z,102007.34
2023-04-10T01:20:42.345Z,102024.63
2023-04-10T01:23:53.474Z,102019.50
2023-04-10T01:26:37.167Z,102042.91
2023-04-10T01:29:10.094Z,102046.16
2023-04-10T01:31:42.653Z,102032.22
2023-04-10T01:34:20.205Z,102027.53
2023-04-10T01:37:01.373Z,102052.13
2023-04-10T01:39:30.840Z,102035.25
2023-04-10T01:42:00.167Z,102022.09
2023-04-10T01:44:30.549Z,102030.78
2023-04-10T01:46:58.968Z,102031.13
2023-04-10T01:49:32.975Z,102006.75
2023-04-10T01:52:03.812Z,102000.41
2023-04-10T01:54:36.826Z,102007.16
2023-04-10T01:57:04.864Z,101982.47
2023-04-10T01:59:34.165Z,102011.41
2023-04-10T02:02:01.856Z,102018.38
2023-04-10T02:04:28.910Z,102009.34
2023-04-10T02:07:06.836Z,102004.88
2023-04-10T02:10:07.252Z,102002.25
2023-04-10T02:12:41.825Z,101978.41
2023-04-10T02:15:10.598Z,101992.81
2023-04-10T02:17:40.002Z,101984.88
2023-04-10T02:20:09.216Z,101982.25
2023-04-10T02:22:37.551Z,101964.50
2023-04-10T02:25:06.249Z,101983.13
2023-04-10T02:27:37.575Z,101991.47
2023-04-10T02:30:05.543Z,101987.88
2023-04-10T02:32:37.247Z,101954.84
2023-04-10T02:35:07.665Z,101970.81
2023-04-10T02:37:36.373Z,101988.13
2023-04-10T02:40:03.493Z,101941.50
2023-04-10T02:42:30.592Z,101945.28
2023-04-10T02:44:57.741Z,101991.91
2023-04-10T02:47:24.804Z,101997.47
2023-04-10T02:49:51.966Z,101992.16
2023-04-10T02:52:18.928Z,101868.09
2023-04-10T02:54:46.475Z,101993.16
2023-04-10T02:57:15.687Z,101990.66
2023-04-10T02:59:42.624Z,101984.31
2023-04-10T03:02:14.515Z,101993.81
2023-04-10T03:04:41.471Z,101999.03
2023-04-10T03:07:08.186Z,101964.00
2023-04-10T03:09:35.211Z,101979.38
2023-04-10T03:12:02.657Z,101996.00
2023-04-10T03:14:32.182Z,101976.56
2023-04-10T03:16:58.932Z,101995.91
2023-04-10T03:19:28.181Z,102003.88
2023-04-10T03:21:55.123Z,101994.50
2023-04-10T03:24:21.966Z,102002.34
2023-04-10T03:26:48.701Z,101992.22
2023-04-10T03:29:19.295Z,102001.06
2023-04-10T03:31:46.219Z,101995.81
2023-04-10T03:34:13.039Z,101982.13
2023-04-10T03:36:39.833Z,101986.56
2023-04-10T03:39:06.823Z,101982.22
2023-04-10T03:41:36.401Z,101980.81
2023-04-10T03:44:04.056Z,101983.00
2023-04-10T03:46:30.979Z,101990.94
2023-04-10T03:48:57.878Z,101985.91
2023-04-10T03:51:27.727Z,101978.75
2023-04-10T03:53:57.036Z,101976.38
2023-04-10T03:56:23.876Z,101980.06
2023-04-10T03:58:50.952Z,101959.91
2023-04-10T04:01:17.929Z,101957.41
2023-04-10T04:03:50.707Z,101964.25
2023-04-10T04:06:17.762Z,101964.47
2023-04-10T04:08:49.480Z,101925.19
2023-04-10T04:11:21.035Z,101958.38
2023-04-10T04:13:53.101Z,101940.88
2023-04-10T04:16:22.939Z,101889.63
2023-04-10T04:18:50.009Z,101955.09
2023-04-10T04:21:16.950Z,101930.41
2023-04-10T04:23:44.773Z,101937.50
2023-04-10T04:26:14.772Z,101941.19
2023-04-10T04:28:41.721Z,101934.88
2023-04-10T04:31:11.262Z,101937.72
2023-04-10T04:33:38.125Z,101955.75
2023-04-10T04:36:07.783Z,101957.59
2023-04-10T04:38:34.613Z,101930.94
2023-04-10T04:41:01.552Z,101933.56
2023-04-10T04:43:28.539Z,101945.75
2023-04-10T04:45:55.263Z,101925.31
2023-04-10T04:48:24.375Z,101937.28
2023-04-10T04:50:51.016Z,101932.72
2023-04-10T04:53:17.706Z,101937.03
2023-04-10T04:55:44.412Z,101940.75
2023-04-10T04:58:11.185Z,101927.16
2023-04-10T05:00:37.865Z,101936.19
2023-04-10T05:03:06.896Z,101924.78
2023-04-10T05:05:34.475Z,101911.41
2023-04-10T05:08:01.653Z,101920.88
2023-04-10T05:10:28.872Z,101915.28
2023-04-10T05:12:58.201Z,101918.78
2023-04-10T05:15:32.961Z,101909.53
2023-04-10T05:18:02.626Z,101897.91
2023-04-10T05:20:34.903Z,101774.34
2023-04-10T05:23:05.693Z,101898.22
2023-04-10T05:25:32.566Z,101894.00
2023-04-10T05:28:01.939Z,101902.19
2023-04-10T05:30:30.248Z,101888.69
2023-04-10T05:33:00.018Z,101888.13
2023-04-10T05:35:26.774Z,101900.94
2023-04-10T05:37:53.774Z,101888.19
2023-04-10T05:40:24.062Z,101903.31
2023-04-10T05:42:51.226Z,101895.66
2023-04-10T05:45:18.762Z,101895.09
2023-04-10T05:47:48.135Z,101883.78
2023-04-10T05:50:18.293Z,101893.59
2023-04-10T05:52:46.886Z,101893.16
2023-04-10T05:55:13.729Z,101900.69
2023-04-10T05:57:40.842Z,101900.97
2023-04-10T06:00:09.496Z,101905.13
2023-04-10T06:02:41.866Z,101902.19
2023-04-10T06:05:09.200Z,101874.47
2023-04-10T06:07:36.264Z,101903.91
2023-04-10T06:10:03.244Z,101884.81
2023-04-10T06:12:30.178Z,101758.19
2023-04-10T06:14:56.840Z,101893.00
2023-04-10T06:17:25.858Z,101891.00
2023-04-10T06:19:52.755Z,101891.53
2023-04-10T06:22:21.655Z,101891.28
2023-04-10T06:24:51.819Z,101888.19
2023-04-10T06:27:18.647Z,101873.44
2023-04-10T06:30:03.877Z,101865.75
2023-04-10T06:32:30.936Z,101867.47
2023-04-10T06:34:57.875Z,101857.56
2023-04-10T06:37:31.755Z,101856.19
2023-04-10T06:40:07.315Z,101850.34
2023-04-10T06:42:35.904Z,101850.09
2023-04-10T06:45:06.487Z,101847.38
2023-04-10T06:47:33.400Z,101834.59
2023-04-10T06:50:04.961Z,101845.34
2023-04-10T06:52:32.519Z,101824.75
2023-04-10T06:55:01.800Z,101826.97
2023-04-10T06:57:28.997Z,101781.59
2023-04-10T06:59:57.048Z,101824.56
2023-04-10T07:02:24.072Z,101812.03
2023-04-10T07:04:53.937Z,101811.53
2023-04-10T07:07:20.825Z,101795.28
2023-04-10T07:09:47.949Z,101806.41
2023-04-10T07:12:14.637Z,101803.50
2023-04-10T07:14:44.437Z,101807.16
2023-04-10T07:17:13.714Z,101765.00
2023-04-10T07:19:42.805Z,101785.03
2023-04-10T07:22:09.724Z,101770.63
2023-04-10T07:24:38.847Z,101778.69
2023-04-10T07:27:05.616Z,101764.53
2023-04-10T07:29:32.378Z,101760.09
2023-04-10T07:31:59.288Z,101765.03
2023-04-10T07:34:26.332Z,101754.81
2023-04-10T07:36:53.457Z,101757.97
2023-04-10T07:39:20.280Z,101761.59
2023-04-10T07:41:47.175Z,101754.88
2023-04-10T07:44:14.633Z,101748.91
2023-04-10T07:46:41.815Z,101740.88
2023-04-10T07:49:08.983Z,101731.84
2023-04-10T07:51:36.353Z,101732.75
2023-04-10T07:54:04.528Z,101724.31
2023-04-10T07:56:33.826Z,101710.53
2023-04-10T07:59:03.864Z,101724.06
2023-04-10T08:01:30.937Z,101706.91
2023-04-10T08:03:58.070Z,101692.03
2023-04-10T08:06:27.931Z,101702.53
2023-04-10T08:08:55.218Z,101705.84
2023-04-10T08:11:29.420Z,101717.66
2023-04-10T08:14:02.068Z,101675.44
2023-04-10T08:16:30.972Z,101693.47
2023-04-10T08:18:58.762Z,101698.81
2023-04-10T08:21:29.948Z,101657.00
2023-04-10T08:23:58.487Z,101698.88
2023-04-10T08:26:27.929Z,101699.34
2023-04-10T08:28:58.652Z,101702.38
2023-04-10T08:31:27.675Z,101697.09
2023-04-10T08:34:14.454Z,101693.25
2023-04-10T08:36:45.299Z,101684.34
2023-04-10T08:39:14.691Z,101680.38
2023-04-10T08:41:41.710Z,101672.09
2023-04-10T08:44:10.236Z,101666.38
2023-04-10T08:46:40.685Z,101662.41
2023-04-10T08:49:20.073Z,101664.56
2023-04-10T08:51:57.791Z,101681.69
2023-04-10T08:54:36.591Z,101677.47
2023-04-10T08:57:09.184Z,101659.47
2023-04-10T08:59:40.248Z,101669.81
2023-04-10T09:02:10.601Z,101670.34
2023-04-10T09:04:38.001Z,101660.03
2023-04-10T09:07:09.678Z,101661.66
2023-04-10T09:09:36.894Z,101654.63
2023-04-10T09:12:04.146Z,101658.25
2023-04-10T09:14:35.280Z,101662.53
2023-04-10T09:17:15.838Z,101643.53
2023-04-10T09:19:47.279Z,101647.09
2023-04-10T09:22:14.461Z,101651.22
2023-04-10T09:24:44.473Z,101640.53
2023-04-10T09:27:27.905Z,101643.13
2023-04-10T09:29:55.528Z,101633.13
2023-04-10T09:32:45.359Z,101627.97
2023-04-10T09:35:16.854Z,101627.06
2023-04-10T09:37:47.020Z,101616.34
2023-04-10T09:40:25.521Z,101610.78
2023-04-10T09:42:53.559Z,101601.03
2023-04-10T09:45:22.547Z,101588.63
2023-04-10T09:48:07.373Z,101590.53
2023-04-10T09:50:40.407Z,101576.94
2023-04-10T09:53:09.289Z,101584.34
2023-04-10T09:55:38.091Z,101576.09
2023-04-10T09:58:06.157Z,101588.66
2023-04-10T10:00:40.010Z,101573.69
2023-04-10T10:03:10.551Z,101582.66
2023-04-10T10:05:43.097Z,101572.03
2023-04-10T10:08:11.247Z,101566.19
2023-04-10T10:10:46.064Z,101571.88
2023-04-10T10:13:22.834Z,101570.84
2023-04-10T10:15:54.962Z,101538.97
2023-04-10T10:18:25.483Z,101559.28
2023-04-10T10:20:55.846Z,101541.03
2023-04-10T10:23:23.651Z,101545.50
2023-04-10T10:25:51.334Z,101545.97
2023-04-10T10:28:19.176Z,101538.81
2023-04-10T10:30:49.849Z,101534.31
2023-04-10T10:33:21.837Z,101528.38
2023-04-10T10:35:50.206Z,101530.38
2023-04-10T10:38:18.765Z,101518.84
2023-04-10T10:40:51.905Z,101510.69
2023-04-10T10:43:38.199Z,101503.13
2023-04-10T10:46:09.580Z,101499.91
2023-04-10T10:48:36.234Z,101502.41
2023-04-10T10:51:04.063Z,101455.16
2023-04-10T10:53:31.989Z,101480.50
2023-04-10T10:55:58.601Z,101473.81
2023-04-10T10:58:50.303Z,101474.00
2023-04-10T11:01:20.309Z,101461.22
2023-04-10T11:03:48.353Z,101477.00
2023-04-10T11:06:19.890Z,101471.44
2023-04-10T11:08:49.400Z,101467.25
2023-04-10T11:11:24.580Z,101468.28
2023-04-10T11:13:58.103Z,101459.41
2023-04-10T11:16:47.278Z,101452.25
2023-04-10T11:19:19.941Z,101448.41
2023-04-10T11:22:04.775Z,101434.31
2023-04-10T11:25:00.997Z,101433.00
2023-04-10T11:27:54.709Z,101430.91
2023-04-10T11:30:36.723Z,101413.69
2023-04-10T11:33:05.898Z,101407.34
2023-04-10T11:35:34.673Z,101404.22
2023-04-10T11:38:11.240Z,101415.16
2023-04-10T11:40:56.651Z,101402.59
2023-04-10T11:43:24.598Z,101405.72
2023-04-10T11:45:59.624Z,101397.31
2023-04-10T11:48:28.991Z,101390.72
2023-04-10T11:50:57.358Z,101381.94
2023-04-10T11:53:30.610Z,101397.47
2023-04-10T11:56:00.828Z,101387.34
2023-04-10T11:58:30.965Z,101383.03
2023-04-10T12:01:04.414Z,101381.31
2023-04-10T12:03:47.149Z,101384.72
2023-04-10T12:06:16.107Z,101375.41
2023-04-10T12:08:50.038Z,101370.41
2023-04-10T12:11:26.337Z,101371.75
2023-04-10T12:13:58.662Z,101369.22
2023-04-10T12:16:27.711Z,101369.38
2023-04-10T12:18:56.287Z,101257.78
2023-04-10T12:21:24.116Z,101362.75
2023-04-10T12:23:54.303Z,101347.72
2023-04-10T12:26:24.721Z,101345.03
2023-04-10T12:28:55.525Z,101348.50
2023-04-10T12:31:37.666Z,101339.84
2023-04-10T12:34:05.584Z,101332.75
2023-04-10T12:36:34.892Z,101327.47
2023-04-10T12:39:03.633Z,101320.94
2023-04-10T12:41:34.241Z,101313.16
2023-04-10T12:44:14.075Z,101321.88
2023-04-10T12:46:45.956Z,101316.00
2023-04-10T12:49:17.207Z,101308.19
2023-04-10T12:51:49.887Z,101315.06
2023-04-10T12:54:34.227Z,101310.28
2023-04-10T12:57:02.394Z,101288.22
2023-04-10T12:59:30.322Z,101297.81
2023-04-10T13:01:57.142Z,101295.53
2023-04-10T13:04:24.060Z,101277.47
2023-04-10T13:06:56.475Z,101295.06
2023-04-10T13:09:23.151Z,101284.28
2023-04-10T13:11:52.114Z,101284.19
2023-04-10T13:14:18.796Z,101274.38
2023-04-10T13:16:47.597Z,101278.00
2023-04-10T13:19:16.567Z,101267.16
2023-04-10T13:21:43.125Z,101261.09
2023-04-10T13:24:12.604Z,101251.31
2023-04-10T13:26:42.610Z,101231.63
2023-04-10T13:29:09.181Z,101230.34
2023-04-10T13:31:35.867Z,101233.56
2023-04-10T13:34:05.783Z,101225.41
2023-04-10T13:36:32.489Z,101219.31
2023-04-10T13:38:59.130Z,101202.59
2023-04-10T13:41:25.757Z,101203.06
2023-04-10T13:43:55.980Z,101198.59
2023-04-10T13:46:22.915Z,101191.19
2023-04-10T13:48:49.502Z,101187.59
2023-04-10T13:51:16.051Z,101173.88
2023-04-10T13:53:42.644Z,101161.88
2023-04-10T13:56:12.039Z,101160.91
2023-04-10T13:58:45.498Z,101159.47
2023-04-10T14:01:14.603Z,101152.91
2023-04-10T14:03:43.686Z,101141.50
2023-04-10T14:06:10.350Z,101138.94
2023-04-10T14:08:39.075Z,101147.88
2023-04-10T14:11:06.021Z,101134.94
2023-04-10T14:13:32.885Z,101143.41
2023-04-10T14:16:01.737Z,101129.19
2023-04-10T14:18:28.412Z,101119.81
2023-04-10T14:20:55.096Z,101132.84
2023-04-10T14:23:23.055Z,101144.38
2023-04-10T14:25:52.207Z,101137.97
2023-04-10T14:28:21.358Z,101150.50
2023-04-10T14:30:50.675Z,101135.25
2023-04-10T14:33:24.370Z,101128.09
2023-04-10T14:35:53.094Z,101122.25
2023-04-10T14:38:19.706Z,101125.00
2023-04-10T14:40:52.132Z,101119.81
2023-04-10T14:43:20.945Z,101122.28
2023-04-10T14:45:52.071Z,101120.06
2023-04-10T14:48:19.965Z,101119.97
2023-04-10T14:50:49.722Z,101109.66
2023-04-10T14:53:16.817Z,101125.34
2023-04-10T14:55:48.772Z,101120.09
2023-04-10T14:58:15.607Z,101138.16
2023-04-10T15:00:43.727Z,101125.19
2023-04-10T15:03:13.438Z,101129.84
2023-04-10T15:05:42.542Z,101123.13
2023-04-10T15:08:09.235Z,101119.22
2023-04-10T15:10:38.371Z,101089.44
2023-04-10T15:13:06.093Z,101103.13
2023-04-10T15:15:32.681Z,101098.81
2023-04-10T15:17:59.342Z,101085.94
2023-04-10T15:20:26.037Z,101067.34
2023-04-10T15:22:52.947Z,101048.94
2023-04-10T15:25:19.863Z,101062.47
2023-04-10T15:27:46.548Z,101051.97
2023-04-10T15:30:13.234Z,101057.25
2023-04-10T15:32:39.841Z,101047.38
2023-04-10T15:35:09.152Z,101041.38
2023-04-10T15:37:36.731Z,101036.22
2023-04-10T15:40:04.723Z,101033.31
2023-04-10T15:42:31.313Z,101031.22
2023-04-10T15:44:57.988Z,101027.41
2023-04-10T15:47:24.785Z,101021.41
2023-04-10T15:49:51.413Z,101016.69
2023-04-10T15:52:18.116Z,101004.03
2023-04-10T15:54:44.699Z,101023.25
2023-04-10T15:57:11.203Z,101024.16
2023-04-10T15:59:37.814Z,101019.69
2023-04-10T16:02:06.924Z,101014.72
2023-04-10T16:04:35.175Z,101021.28
2023-04-10T16:07:01.970Z,101006.19
2023-04-10T16:09:31.171Z,101002.59
2023-04-10T16:11:58.098Z,100993.69
2023-04-10T16:14:24.859Z,100980.38
2023-04-10T16:16:51.425Z,101006.59
2023-04-10T16:19:30.544Z,101005.41
2023-04-10T16:21:57.380Z,101016.59
2023-04-10T16:24:24.046Z,101000.84
2023-04-10T16:26:50.744Z,101018.00
2023-04-10T16:29:19.838Z,101014.09
2023-04-10T16:31:46.540Z,101009.28
2023-04-10T16:34:13.263Z,101033.50
2023-04-10T16:36:42.133Z,101049.81
2023-04-10T16:39:08.880Z,101007.66
2023-04-10T16:41:35.506Z,101045.22
2023-04-10T16:44:04.557Z,101049.19
2023-04-10T16:46:33.167Z,101056.00
2023-04-10T16:49:02.928Z,101053.59
2023-04-10T16:51:31.935Z,101064.41
2023-04-10T16:54:00.754Z,101029.53
2023-04-10T16:56:27.375Z,101054.41
2023-04-10T16:58:54.244Z,101052.88
2023-04-10T17:01:26.466Z,101051.97
2023-04-10T17:03:54.558Z,101049.88
2023-04-10T17:06:21.307Z,101050.25
2023-04-10T17:08:48.200Z,101069.75
2023-04-10T17:11:14.923Z,101074.84
2023-04-10T17:13:42.164Z,101069.34
2023-04-10T17:16:09.561Z,101069.66
2023-04-10T17:18:36.277Z,101067.13
2023-04-10T17:21:05.523Z,101067.78
2023-04-10T17:23:32.305Z,101066.84
2023-04-10T17:25:59.048Z,101069.75
2023-04-10T17:28:26.109Z,101072.13
2023-04-10T17:30:52.742Z,101073.50
2023-04-10T17:33:21.866Z,101071.69
2023-04-10T17:35:51.195Z,101076.00
2023-04-10T17:38:18.244Z,101059.31
2023-04-10T17:40:44.856Z,101049.78
2023-04-10T17:43:11.450Z,101050.78
2023-04-10T17:45:41.488Z,101051.84
2023-04-10T17:48:08.824Z,101042.19
2023-04-10T17:50:35.782Z,101025.94
2023-04-10T17:53:02.483Z,101001.59
2023-04-10T17:55:29.189Z,100980.53
2023-04-10T17:58:00.396Z,100988.44
2023-04-10T18:00:27.030Z,100975.38
2023-04-10T18:03:00.868Z,100979.84
2023-04-10T18:05:32.158Z,100985.66
2023-04-10T18:08:00.968Z,100969.66
2023-04-10T18:10:27.570Z,100970.22
2023-04-10T18:12:58.581Z,100961.84
2023-04-10T18:15:25.965Z,100931.59
2023-04-10T18:17:52.616Z,100946.59
2023-04-10T18:20:20.867Z,100944.00
2023-04-10T18:22:50.488Z,100943.13
2023-04-10T18:25:20.099Z,100949.13
2023-04-10T18:28:09.577Z,100951.34
2023-04-10T18:30:39.106Z,100959.72
2023-04-10T18:33:09.977Z,100965.50
2023-04-10T18:35:37.902Z,100946.50
2023-04-10T18:38:09.236Z,100937.19
2023-04-10T18:40:36.905Z,100954.19
2023-04-10T18:43:06.089Z,100953.47
2023-04-10T18:45:37.453Z,100949.78
2023-04-10T18:48:04.226Z,100968.50
2023-04-10T18:50:36.912Z,100945.25
2023-04-10T18:53:05.723Z,100926.81
2023-04-10T18:55:34.724Z,100958.94
2023-04-10T18:58:01.520Z,100964.94
2023-04-10T19:00:28.217Z,100953.06
2023-04-10T19:02:55.670Z,100953.47
2023-04-10T19:05:22.552Z,100968.03
2023-04-10T19:08:00.548Z,100946.31
2023-04-10T19:10:32.279Z,100924.72
2023-04-10T19:13:01.309Z,100915.47
2023-04-10T19:15:30.122Z,100903.16
2023-04-10T19:17:56.970Z,100911.69
2023-04-10T19:20:48.933Z,100918.91
2023-04-10T19:23:11.216Z,100908.25
2023-04-10T19:25:38.031Z,100914.63
2023-04-10T19:28:04.674Z,100948.78
2023-04-10T19:30:31.301Z,100938.09
2023-04-10T19:33:00.542Z,100931.78
2023-04-10T19:35:27.274Z,100939.31
2023-04-10T19:37:57.805Z,100935.91
2023-04-10T19:40:26.779Z,100922.09
2023-04-10T19:42:53.566Z,100929.06
2023-04-10T19:45:27.266Z,100922.38
2023-04-10T19:47:56.282Z,100913.78
2023-04-10T19:50:23.067Z,100914.25
2023-04-10T19:52:49.865Z,100917.00
2023-04-10T19:55:18.757Z,100920.03
2023-04-10T19:57:46.044Z,100926.44
2023-04-10T20:00:13.165Z,100916.34
2023-04-10T20:02:40.349Z,100910.28
2023-04-10T20:05:07.602Z,100917.63
2023-04-10T20:07:34.208Z,100907.28
2023-04-10T20:10:03.511Z,100897.69
2023-04-10T20:12:33.182Z,100896.81
2023-04-10T20:15:00.736Z,100902.59
2023-04-10T20:17:28.008Z,100911.28
2023-04-10T20:19:57.757Z,100892.53
2023-04-10T20:22:24.578Z,100912.22
2023-04-10T20:24:53.659Z,100909.97
2023-04-10T20:27:20.598Z,100895.91
2023-04-10T20:29:49.866Z,100883.16
2023-04-10T20:32:19.184Z,100914.91
2023-04-10T20:34:48.406Z,100899.16
2023-04-10T20:37:18.783Z,100902.00
2023-04-10T20:39:48.597Z,100893.84
2023-04-10T20:42:17.081Z,100900.88
2023-04-10T20:44:44.022Z,100898.59
2023-04-10T20:47:11.043Z,100875.88
2023-04-10T20:49:38.357Z,100892.34
2023-04-10T20:52:06.234Z,100895.22
2023-04-10T20:54:33.649Z,100837.94
2023-04-10T20:57:06.222Z,100885.94
2023-04-10T20:59:33.369Z,100856.28
2023-04-10T21:02:00.256Z,100879.50
2023-04-10T21:04:27.049Z,100889.50
2023-04-10T21:06:53.795Z,100860.16
2023-04-10T21:09:20.962Z,100901.25
2023-04-10T21:11:47.634Z,100886.38
2023-04-10T21:14:14.473Z,100881.25
2023-04-10T21:16:42.786Z,100895.16
2023-04-10T21:19:09.699Z,100897.88
2023-04-10T21:21:36.430Z,100880.38
2023-04-10T21:24:03.516Z,100890.69
2023-04-10T21:26:30.284Z,100893.56
2023-04-10T21:29:01.923Z,100896.44
2023-04-10T21:31:28.776Z,100890.59
2023-04-10T21:33:55.616Z,100914.69
2023-04-10T21:36:22.389Z,100895.44
2023-04-10T21:38:49.097Z,100877.34
2023-04-10T21:41:15.869Z,100884.22
2023-04-10T21:43:44.913Z,100892.22
2023-04-10T21:46:12.034Z,100900.72
2023-04-10T21:48:39.209Z,100890.94
2023-04-10T21:51:08.683Z,100800.44
2023-04-10T21:53:35.344Z,100887.06
2023-04-10T21:56:08.168Z,100879.88
2023-04-10T21:58:39.863Z,100867.00
2023-04-10T22:01:08.375Z,100876.03
2023-04-10T22:03:38.538Z,100886.97
2023-04-10T22:06:05.450Z,100886.38
2023-04-10T22:08:34.729Z,100876.84
2023-04-10T22:11:01.578Z,100866.22
2023-04-10T22:13:31.128Z,100858.34
2023-04-10T22:15:58.848Z,100876.63
2023-04-10T22:18:25.874Z,100886.16
2023-04-10T22:20:52.878Z,100893.00
2023-04-10T22:23:19.642Z,100887.09
2023-04-10T22:25:48.739Z,100862.28
2023-04-10T22:28:15.916Z,100863.72
2023-04-10T22:30:42.622Z,100880.63
2023-04-10T22:33:14.315Z,100879.50
2023-04-10T22:35:41.083Z,100881.25
2023-04-10T22:38:07.920Z,100890.69
2023-04-10T22:40:34.720Z,100878.06
2023-04-10T22:43:01.709Z,100875.19
2023-04-10T22:45:28.640Z,100876.03
2023-04-10T22:47:55.847Z,100868.97
2023-04-10T22:50:22.685Z,100845.22
2023-04-10T22:52:49.575Z,100861.97
2023-04-10T22:55:16.532Z,100867.13
2023-04-10T22:57:47.653Z,100859.94
2023-04-10T23:00:15.020Z,100872.28
2023-04-10T23:02:41.986Z,100873.00
2023-04-10T23:05:09.341Z,100878.59
2023-04-10T23:07:36.071Z,100863.59
2023-04-10T23:10:02.963Z,100888.28
2023-04-10T23:12:32.151Z,100877.97
2023-04-10T23:15:01.308Z,100895.91
2023-04-10T23:17:28.210Z,100867.94
2023-04-10T23:19:57.339Z,100864.38
2023-04-10T23:22:24.126Z,100857.94
2023-04-10T23:24:54.851Z,100876.13
2023-04-10T23:27:21.765Z,100889.34
2023-04-10T23:29:51.844Z,100888.78
2023-04-10T23:32:18.514Z,100897.13
2023-04-10T23:34:46.387Z,100886.81
2023-04-10T23:37:13.169Z,100894.31
2023-04-10T23:39:39.997Z,100875.94
2023-04-10T23:42:06.871Z,100894.16
2023-04-10T23:44:33.542Z,100889.41
2023-04-10T23:47:00.328Z,100869.06
2023-04-10T23:49:27.197Z,100890.28
2023-04-10T23:51:54.015Z,100906.38
2023-04-10T23:54:23.038Z,100883.44
2023-04-10T23:56:49.813Z,100906.38
2023-04-10T23:59:17.264Z,100902.94
